sensor_id;sensor_type;location;lat;lon;timestamp;temperature;humidity
25945;SHT31;13742;49.306;8.636;2022-12-18T00:00:43;-7.09;93.17
25945;SHT31;13742;49.306;8.636;2022-12-18T00:01:39;-7.03;93.43
25945;SHT31;13742;49.306;8.636;2022-12-18T00:02:39;-7.01;93.45
25945;SHT31;13742;49.306;8.636;2022-12-18T00:03:39;-6.96;93.42
25945;SHT31;13742;49.306;8.636;2022-12-18T00:04:39;-6.92;93.40
25945;SHT31;13742;49.306;8.636;2022-12-18T00:05:47;-6.88;93.29
25945;SHT31;13742;49.306;8.636;2022-12-18T00:06:39;-6.85;93.33
25945;SHT31;13742;49.306;8.636;2022-12-18T00:07:39;-6.92;92.94
25945;SHT31;13742;49.306;8.636;2022-12-18T00:08:40;-7.02;92.89
25945;SHT31;13742;49.306;8.636;2022-12-18T00:09:39;-6.94;93.08
25945;SHT31;13742;49.306;8.636;2022-12-18T00:10:39;-6.92;93.01
25945;SHT31;13742;49.306;8.636;2022-12-18T00:11:39;-6.88;93.06
25945;SHT31;13742;49.306;8.636;2022-12-18T00:12:39;-6.84;93.02
25945;SHT31;13742;49.306;8.636;2022-12-18T00:13:39;-6.96;92.56
25945;SHT31;13742;49.306;8.636;2022-12-18T00:14:39;-6.96;92.75
25945;SHT31;13742;49.306;8.636;2022-12-18T00:15:39;-6.98;92.84
25945;SHT31;13742;49.306;8.636;2022-12-18T00:16:39;-6.94;92.69
25945;SHT31;13742;49.306;8.636;2022-12-18T00:17:39;-6.91;92.91
25945;SHT31;13742;49.306;8.636;2022-12-18T00:18:39;-6.95;92.87
25945;SHT31;13742;49.306;8.636;2022-12-18T00:19:39;-7.02;92.97
25945;SHT31;13742;49.306;8.636;2022-12-18T00:20:39;-7.05;93.18
25945;SHT31;13742;49.306;8.636;2022-12-18T00:21:39;-7.01;93.19
25945;SHT31;13742;49.306;8.636;2022-12-18T00:22:39;-6.98;92.96
25945;SHT31;13742;49.306;8.636;2022-12-18T00:23:40;-6.96;92.91
25945;SHT31;13742;49.306;8.636;2022-12-18T00:24:39;-6.96;93.08
25945;SHT31;13742;49.306;8.636;2022-12-18T00:25:39;-7.03;93.27
25945;SHT31;13742;49.306;8.636;2022-12-18T00:26:39;-6.96;93.48
25945;SHT31;13742;49.306;8.636;2022-12-18T00:27:39;-6.99;93.25
25945;SHT31;13742;49.306;8.636;2022-12-18T00:28:39;-6.96;93.44
25945;SHT31;13742;49.306;8.636;2022-12-18T00:29:39;-6.95;93.32
25945;SHT31;13742;49.306;8.636;2022-12-18T00:30:39;-6.94;93.24
25945;SHT31;13742;49.306;8.636;2022-12-18T00:31:40;-6.92;93.18
25945;SHT31;13742;49.306;8.636;2022-12-18T00:32:39;-6.99;93.13
25945;SHT31;13742;49.306;8.636;2022-12-18T00:33:39;-6.94;93.15
25945;SHT31;13742;49.306;8.636;2022-12-18T00:34:39;-6.92;93.07
25945;SHT31;13742;49.306;8.636;2022-12-18T00:35:39;-6.94;93.01
25945;SHT31;13742;49.306;8.636;2022-12-18T00:36:40;-6.91;93.21
25945;SHT31;13742;49.306;8.636;2022-12-18T00:37:39;-6.87;93.20
25945;SHT31;13742;49.306;8.636;2022-12-18T00:38:39;-6.88;92.97
25945;SHT31;13742;49.306;8.636;2022-12-18T00:39:39;-6.87;92.94
25945;SHT31;13742;49.306;8.636;2022-12-18T00:40:39;-6.81;93.06
25945;SHT31;13742;49.306;8.636;2022-12-18T00:41:44;-6.78;93.10
25945;SHT31;13742;49.306;8.636;2022-12-18T00:42:44;-7.01;92.91
25945;SHT31;13742;49.306;8.636;2022-12-18T00:43:39;-6.96;93.16
25945;SHT31;13742;49.306;8.636;2022-12-18T00:44:39;-6.88;93.22
25945;SHT31;13742;49.306;8.636;2022-12-18T00:45:39;-6.91;92.90
25945;SHT31;13742;49.306;8.636;2022-12-18T00:46:39;-6.88;93.02
25945;SHT31;13742;49.306;8.636;2022-12-18T00:47:39;-6.87;92.78
25945;SHT31;13742;49.306;8.636;2022-12-18T00:48:39;-6.88;92.84
25945;SHT31;13742;49.306;8.636;2022-12-18T00:49:39;-7.02;92.76
25945;SHT31;13742;49.306;8.636;2022-12-18T00:50:39;-6.92;93.12
25945;SHT31;13742;49.306;8.636;2022-12-18T00:51:39;-6.99;93.15
25945;SHT31;13742;49.306;8.636;2022-12-18T00:52:39;-6.99;93.12
25945;SHT31;13742;49.306;8.636;2022-12-18T00:53:39;-6.91;93.27
25945;SHT31;13742;49.306;8.636;2022-12-18T00:54:39;-6.89;93.06
25945;SHT31;13742;49.306;8.636;2022-12-18T00:55:39;-6.91;92.96
25945;SHT31;13742;49.306;8.636;2022-12-18T00:56:39;-6.85;93.04
25945;SHT31;13742;49.306;8.636;2022-12-18T00:57:39;-6.82;92.89
25945;SHT31;13742;49.306;8.636;2022-12-18T00:58:39;-6.78;92.90
25945;SHT31;13742;49.306;8.636;2022-12-18T00:59:39;-6.77;92.90
25945;SHT31;13742;49.306;8.636;2022-12-18T01:00:39;-6.74;92.88
25945;SHT31;13742;49.306;8.636;2022-12-18T01:01:39;-6.71;92.68
25945;SHT31;13742;49.306;8.636;2022-12-18T01:02:40;-6.73;92.43
25945;SHT31;13742;49.306;8.636;2022-12-18T01:03:39;-6.70;92.54
25945;SHT31;13742;49.306;8.636;2022-12-18T01:04:39;-6.71;92.27
25945;SHT31;13742;49.306;8.636;2022-12-18T01:05:42;-6.75;92.18
25945;SHT31;13742;49.306;8.636;2022-12-18T01:06:39;-6.75;92.26
25945;SHT31;13742;49.306;8.636;2022-12-18T01:07:39;-6.71;92.36
25945;SHT31;13742;49.306;8.636;2022-12-18T01:08:39;-6.71;92.18
25945;SHT31;13742;49.306;8.636;2022-12-18T01:09:39;-6.68;92.20
25945;SHT31;13742;49.306;8.636;2022-12-18T01:10:42;-6.65;92.29
25945;SHT31;13742;49.306;8.636;2022-12-18T01:11:39;-6.63;92.11
25945;SHT31;13742;49.306;8.636;2022-12-18T01:12:39;-6.65;91.93
25945;SHT31;13742;49.306;8.636;2022-12-18T01:13:39;-6.61;91.93
25945;SHT31;13742;49.306;8.636;2022-12-18T01:14:39;-6.60;92.12
25945;SHT31;13742;49.306;8.636;2022-12-18T01:15:39;-6.58;92.07
25945;SHT31;13742;49.306;8.636;2022-12-18T01:16:39;-6.56;92.02
25945;SHT31;13742;49.306;8.636;2022-12-18T01:17:39;-6.57;91.81
25945;SHT31;13742;49.306;8.636;2022-12-18T01:18:39;-6.60;91.60
25945;SHT31;13742;49.306;8.636;2022-12-18T01:19:39;-6.58;91.78
25945;SHT31;13742;49.306;8.636;2022-12-18T01:20:39;-6.63;91.69
25945;SHT31;13742;49.306;8.636;2022-12-18T01:21:39;-6.64;91.79
25945;SHT31;13742;49.306;8.636;2022-12-18T01:22:39;-6.61;92.10
25945;SHT31;13742;49.306;8.636;2022-12-18T01:23:39;-6.63;92.11
25945;SHT31;13742;49.306;8.636;2022-12-18T01:24:39;-6.60;92.08
25945;SHT31;13742;49.306;8.636;2022-12-18T01:25:39;-6.67;92.01
25945;SHT31;13742;49.306;8.636;2022-12-18T01:26:39;-6.73;91.95
25945;SHT31;13742;49.306;8.636;2022-12-18T01:27:39;-6.75;92.13
25945;SHT31;13742;49.306;8.636;2022-12-18T01:28:39;-6.91;92.53
25945;SHT31;13742;49.306;8.636;2022-12-18T01:29:39;-7.03;92.89
25945;SHT31;13742;49.306;8.636;2022-12-18T01:30:39;-6.95;93.17
25945;SHT31;13742;49.306;8.636;2022-12-18T01:31:39;-6.91;93.24
25945;SHT31;13742;49.306;8.636;2022-12-18T01:32:39;-6.84;93.05
25945;SHT31;13742;49.306;8.636;2022-12-18T01:33:39;-6.80;93.26
25945;SHT31;13742;49.306;8.636;2022-12-18T01:34:39;-6.82;92.81
25945;SHT31;13742;49.306;8.636;2022-12-18T01:35:42;-6.80;92.85
25945;SHT31;13742;49.306;8.636;2022-12-18T01:36:39;-6.77;92.77
25945;SHT31;13742;49.306;8.636;2022-12-18T01:37:39;-6.77;92.39
25945;SHT31;13742;49.306;8.636;2022-12-18T01:38:39;-6.77;92.14
25945;SHT31;13742;49.306;8.636;2022-12-18T01:39:39;-6.77;92.34
25945;SHT31;13742;49.306;8.636;2022-12-18T01:40:39;-6.73;92.44
25945;SHT31;13742;49.306;8.636;2022-12-18T01:41:44;-6.70;92.21
25945;SHT31;13742;49.306;8.636;2022-12-18T01:42:39;-6.74;91.73
25945;SHT31;13742;49.306;8.636;2022-12-18T01:43:54;-6.70;91.84
25945;SHT31;13742;49.306;8.636;2022-12-18T01:45:39;-6.68;91.63
25945;SHT31;13742;49.306;8.636;2022-12-18T01:46:39;-6.64;91.82
25945;SHT31;13742;49.306;8.636;2022-12-18T01:47:51;-6.63;91.70
25945;SHT31;13742;49.306;8.636;2022-12-18T01:48:39;-6.65;91.13
25945;SHT31;13742;49.306;8.636;2022-12-18T01:49:39;-6.73;91.04
25945;SHT31;13742;49.306;8.636;2022-12-18T01:50:41;-6.70;91.53
25945;SHT31;13742;49.306;8.636;2022-12-18T01:51:39;-6.68;91.30
25945;SHT31;13742;49.306;8.636;2022-12-18T01:52:41;-6.65;91.36
25945;SHT31;13742;49.306;8.636;2022-12-18T01:53:41;-6.64;91.42
25945;SHT31;13742;49.306;8.636;2022-12-18T01:54:39;-6.64;91.44
25945;SHT31;13742;49.306;8.636;2022-12-18T01:55:56;-6.71;91.31
25945;SHT31;13742;49.306;8.636;2022-12-18T01:56:39;-6.75;91.44
25945;SHT31;13742;49.306;8.636;2022-12-18T01:57:40;-6.75;91.47
25945;SHT31;13742;49.306;8.636;2022-12-18T01:58:52;-6.73;91.55
25945;SHT31;13742;49.306;8.636;2022-12-18T01:59:40;-6.71;91.49
25945;SHT31;13742;49.306;8.636;2022-12-18T02:00:39;-6.68;91.36
25945;SHT31;13742;49.306;8.636;2022-12-18T02:01:39;-6.64;91.68
25945;SHT31;13742;49.306;8.636;2022-12-18T02:02:40;-6.64;91.42
25945;SHT31;13742;49.306;8.636;2022-12-18T02:03:41;-6.61;91.53
25945;SHT31;13742;49.306;8.636;2022-12-18T02:04:41;-6.73;91.17
25945;SHT31;13742;49.306;8.636;2022-12-18T02:06:40;-6.89;91.52
25945;SHT31;13742;49.306;8.636;2022-12-18T02:06:42;-6.78;91.22
25945;SHT31;13742;49.306;8.636;2022-12-18T02:07:48;-6.89;91.86
25945;SHT31;13742;49.306;8.636;2022-12-18T02:09:46;-6.87;91.94
25945;SHT31;13742;49.306;8.636;2022-12-18T02:11:54;-6.84;91.68
25945;SHT31;13742;49.306;8.636;2022-12-18T02:12:52;-6.81;91.71
25945;SHT31;13742;49.306;8.636;2022-12-18T02:15:16;-6.75;91.65
25945;SHT31;13742;49.306;8.636;2022-12-18T02:15:46;-6.80;91.35
25945;SHT31;13742;49.306;8.636;2022-12-18T02:16:45;-6.77;91.35
25945;SHT31;13742;49.306;8.636;2022-12-18T02:18:05;-6.77;91.18
25945;SHT31;13742;49.306;8.636;2022-12-18T02:18:43;-6.81;91.16
25945;SHT31;13742;49.306;8.636;2022-12-18T02:19:47;-6.80;91.16
25945;SHT31;13742;49.306;8.636;2022-12-18T02:23:01;-6.89;91.17
25945;SHT31;13742;49.306;8.636;2022-12-18T02:23:49;-6.82;91.45
25945;SHT31;13742;49.306;8.636;2022-12-18T02:24:53;-6.80;91.45
25945;SHT31;13742;49.306;8.636;2022-12-18T02:26:47;-6.78;91.34
25945;SHT31;13742;49.306;8.636;2022-12-18T02:27:41;-6.78;91.37
25945;SHT31;13742;49.306;8.636;2022-12-18T02:28:46;-6.77;91.47
25945;SHT31;13742;49.306;8.636;2022-12-18T02:29:45;-6.74;91.47
25945;SHT31;13742;49.306;8.636;2022-12-18T02:30:39;-6.74;91.50
25945;SHT31;13742;49.306;8.636;2022-12-18T02:31:43;-6.71;91.36
25945;SHT31;13742;49.306;8.636;2022-12-18T02:32:47;-6.85;91.15
25945;SHT31;13742;49.306;8.636;2022-12-18T02:33:40;-6.77;91.40
25945;SHT31;13742;49.306;8.636;2022-12-18T02:34:40;-6.77;91.61
25945;SHT31;13742;49.306;8.636;2022-12-18T02:35:40;-6.70;91.69
25945;SHT31;13742;49.306;8.636;2022-12-18T02:36:40;-6.68;91.54
25945;SHT31;13742;49.306;8.636;2022-12-18T02:37:40;-6.77;91.03
25945;SHT31;13742;49.306;8.636;2022-12-18T02:38:39;-6.89;91.49
25945;SHT31;13742;49.306;8.636;2022-12-18T02:39:41;-6.96;91.79
25945;SHT31;13742;49.306;8.636;2022-12-18T02:40:39;-6.89;92.11
25945;SHT31;13742;49.306;8.636;2022-12-18T02:41:39;-6.95;91.82
25945;SHT31;13742;49.306;8.636;2022-12-18T02:42:39;-6.91;91.87
25945;SHT31;13742;49.306;8.636;2022-12-18T02:43:39;-6.87;91.77
25945;SHT31;13742;49.306;8.636;2022-12-18T02:44:46;-6.85;91.92
25945;SHT31;13742;49.306;8.636;2022-12-18T02:46:45;-6.92;91.57
25945;SHT31;13742;49.306;8.636;2022-12-18T02:47:42;-6.94;91.82
25945;SHT31;13742;49.306;8.636;2022-12-18T02:48:39;-6.92;91.85
25945;SHT31;13742;49.306;8.636;2022-12-18T02:50:45;-6.94;91.71
25945;SHT31;13742;49.306;8.636;2022-12-18T02:53:43;-6.92;91.87
25945;SHT31;13742;49.306;8.636;2022-12-18T02:54:49;-6.95;91.81
25945;SHT31;13742;49.306;8.636;2022-12-18T02:56:46;-6.99;92.14
25945;SHT31;13742;49.306;8.636;2022-12-18T02:59:46;-6.91;92.26
25945;SHT31;13742;49.306;8.636;2022-12-18T03:00:48;-6.89;92.37
25945;SHT31;13742;49.306;8.636;2022-12-18T03:01:51;-7.03;92.23
25945;SHT31;13742;49.306;8.636;2022-12-18T03:02:46;-7.01;92.64
25945;SHT31;13742;49.306;8.636;2022-12-18T03:03:43;-6.96;92.65
25945;SHT31;13742;49.306;8.636;2022-12-18T03:04:47;-6.92;92.64
25945;SHT31;13742;49.306;8.636;2022-12-18T03:05:47;-6.91;92.57
25945;SHT31;13742;49.306;8.636;2022-12-18T03:06:46;-6.99;92.40
25945;SHT31;13742;49.306;8.636;2022-12-18T03:07:49;-7.08;92.34
25945;SHT31;13742;49.306;8.636;2022-12-18T03:08:44;-7.03;92.58
25945;SHT31;13742;49.306;8.636;2022-12-18T03:09:42;-6.96;92.88
25945;SHT31;13742;49.306;8.636;2022-12-18T03:10:44;-6.95;92.67
25945;SHT31;13742;49.306;8.636;2022-12-18T03:11:49;-6.92;92.50
25945;SHT31;13742;49.306;8.636;2022-12-18T03:12:43;-6.89;92.56
25945;SHT31;13742;49.306;8.636;2022-12-18T03:13:45;-6.87;92.39
25945;SHT31;13742;49.306;8.636;2022-12-18T03:14:40;-6.91;92.18
25945;SHT31;13742;49.306;8.636;2022-12-18T03:15:42;-7.01;92.13
25945;SHT31;13742;49.306;8.636;2022-12-18T03:16:40;-6.99;92.41
25945;SHT31;13742;49.306;8.636;2022-12-18T03:17:44;-7.03;92.40
25945;SHT31;13742;49.306;8.636;2022-12-18T03:18:46;-7.01;92.57
25945;SHT31;13742;49.306;8.636;2022-12-18T03:19:40;-7.20;92.24
25945;SHT31;13742;49.306;8.636;2022-12-18T03:20:41;-7.25;92.59
25945;SHT31;13742;49.306;8.636;2022-12-18T03:21:43;-7.17;92.67
25945;SHT31;13742;49.306;8.636;2022-12-18T03:22:41;-7.11;92.94
25945;SHT31;13742;49.306;8.636;2022-12-18T03:23:45;-7.06;93.07
25945;SHT31;13742;49.306;8.636;2022-12-18T03:24:39;-7.03;92.95
25945;SHT31;13742;49.306;8.636;2022-12-18T03:25:41;-7.01;92.93
25945;SHT31;13742;49.306;8.636;2022-12-18T03:26:42;-6.95;92.94
25945;SHT31;13742;49.306;8.636;2022-12-18T03:27:45;-6.91;92.94
25945;SHT31;13742;49.306;8.636;2022-12-18T03:28:42;-6.88;92.74
25945;SHT31;13742;49.306;8.636;2022-12-18T03:29:43;-6.85;92.58
25945;SHT31;13742;49.306;8.636;2022-12-18T03:30:40;-6.87;92.18
25945;SHT31;13742;49.306;8.636;2022-12-18T03:31:40;-6.85;91.89
25945;SHT31;13742;49.306;8.636;2022-12-18T03:32:44;-6.84;91.70
25945;SHT31;13742;49.306;8.636;2022-12-18T03:33:55;-6.81;91.80
25945;SHT31;13742;49.306;8.636;2022-12-18T03:34:41;-6.82;91.30
25945;SHT31;13742;49.306;8.636;2022-12-18T03:35:41;-7.05;90.83
25945;SHT31;13742;49.306;8.636;2022-12-18T03:36:39;-7.09;91.17
25945;SHT31;13742;49.306;8.636;2022-12-18T03:37:39;-7.02;91.45
25945;SHT31;13742;49.306;8.636;2022-12-18T03:38:38;-6.98;91.63
25945;SHT31;13742;49.306;8.636;2022-12-18T03:39:38;-6.95;91.46
25945;SHT31;13742;49.306;8.636;2022-12-18T03:42:46;-7.03;90.76
25945;SHT31;13742;49.306;8.636;2022-12-18T03:43:52;-6.99;90.93
25945;SHT31;13742;49.306;8.636;2022-12-18T03:45:43;-6.98;90.72
25945;SHT31;13742;49.306;8.636;2022-12-18T03:48:44;-7.06;90.17
25945;SHT31;13742;49.306;8.636;2022-12-18T03:49:46;-7.02;90.43
25945;SHT31;13742;49.306;8.636;2022-12-18T03:50:48;-7.01;90.75
25945;SHT31;13742;49.306;8.636;2022-12-18T03:51:55;-6.98;90.69
25945;SHT31;13742;49.306;8.636;2022-12-18T03:52:58;-6.98;90.70
25945;SHT31;13742;49.306;8.636;2022-12-18T03:54:00;-6.96;90.66
25945;SHT31;13742;49.306;8.636;2022-12-18T03:54:40;-6.95;90.54
25945;SHT31;13742;49.306;8.636;2022-12-18T03:55:39;-6.98;90.34
25945;SHT31;13742;49.306;8.636;2022-12-18T03:56:42;-7.02;89.89
25945;SHT31;13742;49.306;8.636;2022-12-18T03:57:39;-7.06;89.78
25945;SHT31;13742;49.306;8.636;2022-12-18T03:58:40;-7.06;89.75
25945;SHT31;13742;49.306;8.636;2022-12-18T03:59:39;-7.11;90.01
25945;SHT31;13742;49.306;8.636;2022-12-18T04:00:39;-7.12;89.84
25945;SHT31;13742;49.306;8.636;2022-12-18T04:01:45;-7.15;89.71
25945;SHT31;13742;49.306;8.636;2022-12-18T04:02:42;-7.16;89.95
25945;SHT31;13742;49.306;8.636;2022-12-18T04:03:39;-7.11;90.18
25945;SHT31;13742;49.306;8.636;2022-12-18T04:04:39;-7.12;90.26
25945;SHT31;13742;49.306;8.636;2022-12-18T04:05:40;-7.08;90.36
25945;SHT31;13742;49.306;8.636;2022-12-18T04:06:39;-7.06;90.04
25945;SHT31;13742;49.306;8.636;2022-12-18T04:07:39;-7.06;90.04
25945;SHT31;13742;49.306;8.636;2022-12-18T04:08:40;-7.02;89.90
25945;SHT31;13742;49.306;8.636;2022-12-18T04:09:39;-7.03;89.45
25945;SHT31;13742;49.306;8.636;2022-12-18T04:10:39;-7.03;89.64
25945;SHT31;13742;49.306;8.636;2022-12-18T04:11:40;-7.02;89.79
25945;SHT31;13742;49.306;8.636;2022-12-18T04:12:38;-6.99;89.58
25945;SHT31;13742;49.306;8.636;2022-12-18T04:13:38;-6.98;89.35
25945;SHT31;13742;49.306;8.636;2022-12-18T04:14:38;-6.98;88.88
25945;SHT31;13742;49.306;8.636;2022-12-18T04:15:39;-6.98;88.96
25945;SHT31;13742;49.306;8.636;2022-12-18T04:16:38;-6.98;88.93
25945;SHT31;13742;49.306;8.636;2022-12-18T04:17:46;-6.96;88.75
25945;SHT31;13742;49.306;8.636;2022-12-18T04:18:38;-6.98;88.50
25945;SHT31;13742;49.306;8.636;2022-12-18T04:19:38;-7.02;88.18
25945;SHT31;13742;49.306;8.636;2022-12-18T04:20:38;-7.01;88.38
25945;SHT31;13742;49.306;8.636;2022-12-18T04:21:38;-7.08;87.90
25945;SHT31;13742;49.306;8.636;2022-12-18T04:22:38;-7.12;87.55
25945;SHT31;13742;49.306;8.636;2022-12-18T04:23:38;-7.22;87.70
25945;SHT31;13742;49.306;8.636;2022-12-18T04:24:38;-7.25;88.08
25945;SHT31;13742;49.306;8.636;2022-12-18T04:25:38;-7.26;88.15
25945;SHT31;13742;49.306;8.636;2022-12-18T04:26:38;-7.33;88.27
25945;SHT31;13742;49.306;8.636;2022-12-18T04:27:38;-7.32;88.34
25945;SHT31;13742;49.306;8.636;2022-12-18T04:28:38;-7.34;88.58
25945;SHT31;13742;49.306;8.636;2022-12-18T04:29:38;-7.32;89.08
25945;SHT31;13742;49.306;8.636;2022-12-18T04:30:38;-7.32;88.76
25945;SHT31;13742;49.306;8.636;2022-12-18T04:31:38;-7.37;88.49
25945;SHT31;13742;49.306;8.636;2022-12-18T04:32:38;-7.44;88.47
25945;SHT31;13742;49.306;8.636;2022-12-18T04:33:39;-7.42;88.99
25945;SHT31;13742;49.306;8.636;2022-12-18T04:34:38;-7.42;88.89
25945;SHT31;13742;49.306;8.636;2022-12-18T04:35:39;-7.46;88.73
25945;SHT31;13742;49.306;8.636;2022-12-18T04:36:38;-7.47;88.80
25945;SHT31;13742;49.306;8.636;2022-12-18T04:37:38;-7.47;88.83
25945;SHT31;13742;49.306;8.636;2022-12-18T04:38:38;-7.47;88.86
25945;SHT31;13742;49.306;8.636;2022-12-18T04:39:39;-7.50;88.82
25945;SHT31;13742;49.306;8.636;2022-12-18T04:40:39;-7.48;89.32
25945;SHT31;13742;49.306;8.636;2022-12-18T04:41:38;-7.46;89.53
25945;SHT31;13742;49.306;8.636;2022-12-18T04:42:39;-7.42;89.73
25945;SHT31;13742;49.306;8.636;2022-12-18T04:43:38;-7.37;89.63
25945;SHT31;13742;49.306;8.636;2022-12-18T04:44:38;-7.36;89.54
25945;SHT31;13742;49.306;8.636;2022-12-18T04:45:38;-7.36;88.91
25945;SHT31;13742;49.306;8.636;2022-12-18T04:46:38;-7.34;88.98
25945;SHT31;13742;49.306;8.636;2022-12-18T04:47:38;-7.32;89.02
25945;SHT31;13742;49.306;8.636;2022-12-18T04:48:38;-7.30;89.02
25945;SHT31;13742;49.306;8.636;2022-12-18T04:49:38;-7.30;89.09
25945;SHT31;13742;49.306;8.636;2022-12-18T04:50:38;-7.26;89.09
25945;SHT31;13742;49.306;8.636;2022-12-18T04:51:38;-7.22;89.10
25945;SHT31;13742;49.306;8.636;2022-12-18T04:52:38;-7.23;88.82
25945;SHT31;13742;49.306;8.636;2022-12-18T04:53:38;-7.20;87.96
25945;SHT31;13742;49.306;8.636;2022-12-18T04:54:38;-7.22;87.90
25945;SHT31;13742;49.306;8.636;2022-12-18T04:55:38;-7.22;87.98
25945;SHT31;13742;49.306;8.636;2022-12-18T04:56:39;-7.20;87.99
25945;SHT31;13742;49.306;8.636;2022-12-18T04:57:38;-7.20;87.72
25945;SHT31;13742;49.306;8.636;2022-12-18T04:58:40;-7.17;87.78
25945;SHT31;13742;49.306;8.636;2022-12-18T04:59:38;-7.19;87.63
25945;SHT31;13742;49.306;8.636;2022-12-18T05:00:38;-7.17;87.42
25945;SHT31;13742;49.306;8.636;2022-12-18T05:01:38;-7.17;87.65
25945;SHT31;13742;49.306;8.636;2022-12-18T05:02:38;-7.15;87.04
25945;SHT31;13742;49.306;8.636;2022-12-18T05:03:39;-7.16;87.14
25945;SHT31;13742;49.306;8.636;2022-12-18T05:04:39;-7.15;87.43
25945;SHT31;13742;49.306;8.636;2022-12-18T05:05:38;-7.13;86.94
25945;SHT31;13742;49.306;8.636;2022-12-18T05:06:38;-7.16;86.65
25945;SHT31;13742;49.306;8.636;2022-12-18T05:07:39;-7.17;86.51
25945;SHT31;13742;49.306;8.636;2022-12-18T05:08:38;-7.22;85.64
25945;SHT31;13742;49.306;8.636;2022-12-18T05:09:38;-7.23;86.05
25945;SHT31;13742;49.306;8.636;2022-12-18T05:10:38;-7.22;86.39
25945;SHT31;13742;49.306;8.636;2022-12-18T05:11:38;-7.22;86.60
25945;SHT31;13742;49.306;8.636;2022-12-18T05:12:53;-7.22;85.96
25945;SHT31;13742;49.306;8.636;2022-12-18T05:13:38;-7.22;86.23
25945;SHT31;13742;49.306;8.636;2022-12-18T05:14:38;-7.20;86.07
25945;SHT31;13742;49.306;8.636;2022-12-18T05:15:38;-7.23;86.00
25945;SHT31;13742;49.306;8.636;2022-12-18T05:16:38;-7.25;85.98
25945;SHT31;13742;49.306;8.636;2022-12-18T05:17:38;-7.22;85.83
25945;SHT31;13742;49.306;8.636;2022-12-18T05:18:39;-7.23;85.95
25945;SHT31;13742;49.306;8.636;2022-12-18T05:19:38;-7.22;86.07
25945;SHT31;13742;49.306;8.636;2022-12-18T05:20:38;-7.20;86.18
25945;SHT31;13742;49.306;8.636;2022-12-18T05:21:38;-7.20;86.02
25945;SHT31;13742;49.306;8.636;2022-12-18T05:22:38;-7.22;85.81
25945;SHT31;13742;49.306;8.636;2022-12-18T05:23:38;-7.20;86.27
25945;SHT31;13742;49.306;8.636;2022-12-18T05:24:38;-7.16;86.52
25945;SHT31;13742;49.306;8.636;2022-12-18T05:25:38;-7.20;86.25
25945;SHT31;13742;49.306;8.636;2022-12-18T05:26:38;-7.17;86.32
25945;SHT31;13742;49.306;8.636;2022-12-18T05:27:38;-7.19;86.34
25945;SHT31;13742;49.306;8.636;2022-12-18T05:28:38;-7.17;86.38
25945;SHT31;13742;49.306;8.636;2022-12-18T05:29:38;-7.17;86.50
25945;SHT31;13742;49.306;8.636;2022-12-18T05:30:38;-7.17;86.31
25945;SHT31;13742;49.306;8.636;2022-12-18T05:31:38;-7.17;86.06
25945;SHT31;13742;49.306;8.636;2022-12-18T05:32:39;-7.16;86.07
25945;SHT31;13742;49.306;8.636;2022-12-18T05:33:38;-7.17;85.84
25945;SHT31;13742;49.306;8.636;2022-12-18T05:34:38;-7.16;85.68
25945;SHT31;13742;49.306;8.636;2022-12-18T05:35:38;-7.16;85.50
25945;SHT31;13742;49.306;8.636;2022-12-18T05:36:38;-7.16;85.28
25945;SHT31;13742;49.306;8.636;2022-12-18T05:37:38;-7.17;85.16
25945;SHT31;13742;49.306;8.636;2022-12-18T05:38:39;-7.17;85.25
25945;SHT31;13742;49.306;8.636;2022-12-18T05:39:38;-7.19;85.41
25945;SHT31;13742;49.306;8.636;2022-12-18T05:40:41;-7.22;86.19
25945;SHT31;13742;49.306;8.636;2022-12-18T05:41:39;-7.17;87.30
25945;SHT31;13742;49.306;8.636;2022-12-18T05:42:38;-7.13;87.49
25945;SHT31;13742;49.306;8.636;2022-12-18T05:43:39;-7.08;87.72
25945;SHT31;13742;49.306;8.636;2022-12-18T05:44:38;-7.06;87.99
25945;SHT31;13742;49.306;8.636;2022-12-18T05:45:39;-6.99;88.35
25945;SHT31;13742;49.306;8.636;2022-12-18T05:46:38;-6.95;88.63
25945;SHT31;13742;49.306;8.636;2022-12-18T05:47:38;-6.95;88.87
25945;SHT31;13742;49.306;8.636;2022-12-18T05:48:39;-6.89;89.20
25945;SHT31;13742;49.306;8.636;2022-12-18T05:49:38;-6.88;89.39
25945;SHT31;13742;49.306;8.636;2022-12-18T05:50:41;-6.87;89.26
25945;SHT31;13742;49.306;8.636;2022-12-18T05:51:38;-6.84;89.22
25945;SHT31;13742;49.306;8.636;2022-12-18T05:52:38;-6.78;89.36
25945;SHT31;13742;49.306;8.636;2022-12-18T05:53:38;-6.80;89.33
25945;SHT31;13742;49.306;8.636;2022-12-18T05:54:39;-6.78;89.16
25945;SHT31;13742;49.306;8.636;2022-12-18T05:55:40;-6.77;89.27
25945;SHT31;13742;49.306;8.636;2022-12-18T05:56:38;-6.77;89.16
25945;SHT31;13742;49.306;8.636;2022-12-18T05:57:38;-6.74;89.32
25945;SHT31;13742;49.306;8.636;2022-12-18T05:58:39;-6.73;89.19
25945;SHT31;13742;49.306;8.636;2022-12-18T05:59:38;-6.73;89.04
25945;SHT31;13742;49.306;8.636;2022-12-18T06:00:44;-6.70;89.12
25945;SHT31;13742;49.306;8.636;2022-12-18T06:01:38;-6.68;89.11
25945;SHT31;13742;49.306;8.636;2022-12-18T06:02:38;-6.70;89.03
25945;SHT31;13742;49.306;8.636;2022-12-18T06:03:39;-6.70;89.03
25945;SHT31;13742;49.306;8.636;2022-12-18T06:04:38;-6.70;89.05
25945;SHT31;13742;49.306;8.636;2022-12-18T06:05:41;-6.68;89.05
25945;SHT31;13742;49.306;8.636;2022-12-18T06:06:38;-6.65;89.10
25945;SHT31;13742;49.306;8.636;2022-12-18T06:07:38;-6.67;89.05
25945;SHT31;13742;49.306;8.636;2022-12-18T06:08:38;-6.64;88.96
25945;SHT31;13742;49.306;8.636;2022-12-18T06:09:38;-6.65;88.92
25945;SHT31;13742;49.306;8.636;2022-12-18T06:10:39;-6.67;88.90
25945;SHT31;13742;49.306;8.636;2022-12-18T06:11:38;-6.64;89.01
25945;SHT31;13742;49.306;8.636;2022-12-18T06:12:38;-6.63;88.90
25945;SHT31;13742;49.306;8.636;2022-12-18T06:13:38;-6.64;88.92
25945;SHT31;13742;49.306;8.636;2022-12-18T06:14:39;-6.61;88.89
25945;SHT31;13742;49.306;8.636;2022-12-18T06:15:39;-6.57;88.69
25945;SHT31;13742;49.306;8.636;2022-12-18T06:16:38;-6.60;88.58
25945;SHT31;13742;49.306;8.636;2022-12-18T06:17:38;-6.61;88.58
25945;SHT31;13742;49.306;8.636;2022-12-18T06:18:38;-6.61;88.63
25945;SHT31;13742;49.306;8.636;2022-12-18T06:19:38;-6.61;88.52
25945;SHT31;13742;49.306;8.636;2022-12-18T06:20:39;-6.63;88.53
25945;SHT31;13742;49.306;8.636;2022-12-18T06:21:38;-6.61;88.78
25945;SHT31;13742;49.306;8.636;2022-12-18T06:22:38;-6.56;88.77
25945;SHT31;13742;49.306;8.636;2022-12-18T06:23:38;-6.57;88.62
25945;SHT31;13742;49.306;8.636;2022-12-18T06:24:38;-6.54;88.77
25945;SHT31;13742;49.306;8.636;2022-12-18T06:25:39;-6.53;88.56
25945;SHT31;13742;49.306;8.636;2022-12-18T06:26:39;-6.51;88.27
25945;SHT31;13742;49.306;8.636;2022-12-18T06:27:38;-6.51;88.23
25945;SHT31;13742;49.306;8.636;2022-12-18T06:28:38;-6.50;88.13
25945;SHT31;13742;49.306;8.636;2022-12-18T06:29:38;-6.50;88.21
25945;SHT31;13742;49.306;8.636;2022-12-18T06:30:38;-6.49;88.25
25945;SHT31;13742;49.306;8.636;2022-12-18T06:31:38;-6.44;88.17
25945;SHT31;13742;49.306;8.636;2022-12-18T06:32:38;-6.47;88.12
25945;SHT31;13742;49.306;8.636;2022-12-18T06:33:38;-6.46;88.17
25945;SHT31;13742;49.306;8.636;2022-12-18T06:34:38;-6.44;87.98
25945;SHT31;13742;49.306;8.636;2022-12-18T06:35:38;-6.43;87.84
25945;SHT31;13742;49.306;8.636;2022-12-18T06:36:38;-6.44;87.60
25945;SHT31;13742;49.306;8.636;2022-12-18T06:37:38;-6.46;87.54